createdAt,value
2022-10-04T00:01:08.001Z,14.22
2022-10-04T00:03:43.700Z,14.22
2022-10-04T00:06:18.752Z,14.28
2022-10-04T00:08:52.148Z,14.36
2022-10-04T00:11:26.619Z,14.38
2022-10-04T00:13:59.398Z,14.37
2022-10-04T00:16:31.242Z,14.35
2022-10-04T00:19:26.340Z,14.37
2022-10-04T00:22:24.250Z,14.41
2022-10-04T00:25:20.290Z,14.39
2022-10-04T00:28:29.806Z,14.40
2022-10-04T00:31:24.490Z,14.49
2022-10-04T00:33:55.520Z,14.53
2022-10-04T00:36:39.038Z,14.47
2022-10-04T00:39:25.201Z,14.53
2022-10-04T00:42:03.544Z,14.48
2022-10-04T00:44:39.862Z,14.54
2022-10-04T00:47:21.607Z,14.58
2022-10-04T00:49:56.127Z,14.58
2022-10-04T00:52:30.524Z,14.60
2022-10-04T00:55:02.987Z,14.66
2022-10-04T00:57:35.752Z,14.68
2022-10-04T01:00:07.248Z,14.71
2022-10-04T01:02:47.382Z,14.72
2022-10-04T01:05:19.575Z,14.74
2022-10-04T01:07:54.436Z,14.83
2022-10-04T01:10:26.331Z,14.82
2022-10-04T01:13:02.434Z,14.85
2022-10-04T01:15:37.757Z,14.80
2022-10-04T01:18:12.004Z,14.87
2022-10-04T01:20:49.583Z,14.87
2022-10-04T01:23:39.248Z,14.86
2022-10-04T01:26:29.207Z,14.91
2022-10-04T01:28:59.238Z,14.97
2022-10-04T01:31:28.082Z,14.92
2022-10-04T01:33:57.262Z,15.01
2022-10-04T01:36:27.098Z,14.99
2022-10-04T01:38:57.316Z,15.03
2022-10-04T01:41:32.647Z,15.05
2022-10-04T01:44:04.559Z,15.04
2022-10-04T01:46:36.377Z,15.12
2022-10-04T01:49:17.761Z,15.12
2022-10-04T01:51:54.477Z,15.13
2022-10-04T01:54:32.580Z,15.12
2022-10-04T01:57:06.816Z,15.13
2022-10-04T01:59:42.475Z,15.18
2022-10-04T02:02:18.757Z,15.22
2022-10-04T02:04:53.736Z,15.19
2022-10-04T02:07:22.970Z,15.19
2022-10-04T02:09:59.556Z,15.22
2022-10-04T02:12:31.494Z,15.22
2022-10-04T02:15:02.394Z,15.25
2022-10-04T02:17:33.208Z,15.26
2022-10-04T02:20:02.661Z,15.25
2022-10-04T02:22:31.662Z,15.26
2022-10-04T02:25:01.938Z,15.32
2022-10-04T02:27:31.672Z,15.40
2022-10-04T02:30:04.550Z,15.35
2022-10-04T02:32:51.363Z,15.35
2022-10-04T02:35:21.344Z,15.38
2022-10-04T02:37:54.888Z,15.42
2022-10-04T02:40:30.946Z,15.38
2022-10-04T02:43:04.106Z,15.40
2022-10-04T02:45:42.793Z,15.44
2022-10-04T02:48:31.270Z,15.44
2022-10-04T02:51:07.868Z,15.42
2022-10-04T02:53:47.625Z,15.41
2022-10-04T02:56:19.617Z,15.47
2022-10-04T02:58:48.034Z,15.46
2022-10-04T03:01:25.659Z,15.42
2022-10-04T03:03:56.189Z,15.42
2022-10-04T03:06:29.529Z,15.47
2022-10-04T03:09:02.100Z,15.43
2022-10-04T03:11:35.916Z,15.47
2022-10-04T03:14:07.281Z,15.48
2022-10-04T03:16:37.898Z,15.46
2022-10-04T03:19:08.194Z,15.49
2022-10-04T03:21:38.191Z,15.45
2022-10-04T03:24:07.791Z,15.42
2022-10-04T03:26:42.102Z,15.45
2022-10-04T03:29:12.230Z,15.46
2022-10-04T03:31:42.819Z,15.41
2022-10-04T03:34:16.428Z,15.40
2022-10-04T03:36:45.435Z,15.42
2022-10-04T03:39:19.438Z,15.46
2022-10-04T03:41:49.327Z,15.50
2022-10-04T03:44:19.686Z,15.49
2022-10-04T03:46:48.797Z,15.48
2022-10-04T03:49:24.939Z,15.54
2022-10-04T03:51:53.966Z,15.54
2022-10-04T03:54:27.966Z,15.58
2022-10-04T03:56:58.215Z,15.60
2022-10-04T03:59:29.239Z,15.59
2022-10-04T04:02:11.235Z,15.58
2022-10-04T04:04:50.480Z,15.57
2022-10-04T04:07:25.740Z,15.60
2022-10-04T04:10:00.345Z,15.63
2022-10-04T04:12:40.079Z,15.63
2022-10-04T04:15:11.728Z,15.63
2022-10-04T04:17:42.080Z,15.66
2022-10-04T04:20:24.687Z,15.67
2022-10-04T04:23:00.269Z,15.65
2022-10-04T04:25:32.107Z,15.69
2022-10-04T04:28:08.836Z,15.68
2022-10-04T04:30:39.804Z,15.73
2022-10-04T04:33:11.030Z,15.70
2022-10-04T04:35:39.203Z,15.72
2022-10-04T04:38:18.390Z,15.66
2022-10-04T04:40:47.286Z,15.69
2022-10-04T04:43:20.308Z,15.71
2022-10-04T04:46:08.460Z,15.71
2022-10-04T04:48:38.876Z,15.70
2022-10-04T04:51:07.201Z,15.72
2022-10-04T04:53:36.007Z,15.69
2022-10-04T04:56:10.372Z,15.70
2022-10-04T04:58:45.917Z,15.66
2022-10-04T05:01:22.703Z,15.67
2022-10-04T05:04:02.177Z,15.65
2022-10-04T05:06:32.095Z,15.67
2022-10-04T05:09:00.245Z,15.67
2022-10-04T05:11:31.181Z,15.67
2022-10-04T05:14:05.928Z,15.69
2022-10-04T05:16:39.225Z,15.65
2022-10-04T05:19:10.813Z,15.67
2022-10-04T05:21:42.711Z,15.62
2022-10-04T05:24:14.795Z,15.58
2022-10-04T05:26:43.954Z,15.53
2022-10-04T05:29:18.922Z,15.55
2022-10-04T05:31:54.473Z,15.50
2022-10-04T05:34:25.392Z,15.43
2022-10-04T05:37:07.554Z,15.38
2022-10-04T05:39:44.069Z,15.39
2022-10-04T05:42:18.958Z,15.32
2022-10-04T05:44:52.904Z,15.28
2022-10-04T05:47:24.215Z,15.28
2022-10-04T05:49:55.575Z,15.21
2022-10-04T05:52:30.617Z,15.22
2022-10-04T05:55:37.618Z,15.18
2022-10-04T05:58:28.385Z,15.15
2022-10-04T06:01:20.688Z,15.13
2022-10-04T06:04:13.201Z,15.02
2022-10-04T06:06:50.028Z,15.02
2022-10-04T06:09:41.403Z,15.01
2022-10-04T06:12:14.595Z,14.97
2022-10-04T06:14:58.545Z,15.00
2022-10-04T06:17:48.815Z,14.98
2022-10-04T06:20:44.565Z,14.94
2022-10-04T06:23:16.909Z,14.92
2022-10-04T06:25:48.817Z,14.94
2022-10-04T06:28:24.020Z,14.90
2022-10-04T06:31:19.690Z,14.89
2022-10-04T06:34:06.759Z,14.91
2022-10-04T06:36:48.636Z,14.93
2022-10-04T06:39:41.101Z,14.88
2022-10-04T06:42:57.337Z,14.91
2022-10-04T06:46:03.780Z,14.94
2022-10-04T06:48:49.440Z,14.90
2022-10-04T06:51:32.202Z,14.89
2022-10-04T06:54:14.446Z,14.92
2022-10-04T06:57:08.461Z,14.95
2022-10-04T06:59:52.824Z,14.95
2022-10-04T07:02:27.635Z,14.93
2022-10-04T07:05:08.442Z,14.90
2022-10-04T07:07:42.133Z,14.92
2022-10-04T07:10:26.135Z,14.92
2022-10-04T07:13:12.600Z,14.96
2022-10-04T07:15:48.436Z,15.00
2022-10-04T07:18:24.128Z,14.97
2022-10-04T07:20:59.558Z,14.98
2022-10-04T07:23:33.415Z,15.00
2022-10-04T07:26:05.405Z,15.03
2022-10-04T07:28:58.131Z,15.05
2022-10-04T07:31:29.344Z,15.07
2022-10-04T07:34:01.513Z,15.06
2022-10-04T07:36:33.165Z,15.07
2022-10-04T07:39:12.361Z,15.16
2022-10-04T07:41:50.002Z,15.17
2022-10-04T07:44:27.545Z,15.19
2022-10-04T07:47:00.323Z,15.25
2022-10-04T07:49:28.660Z,15.26
2022-10-04T07:52:19.084Z,15.33
2022-10-04T07:54:55.504Z,15.36
2022-10-04T07:57:31.052Z,15.40
2022-10-04T08:00:07.270Z,15.43
2022-10-04T08:02:46.689Z,15.48
2022-10-04T08:05:23.356Z,15.53
2022-10-04T08:08:22.689Z,15.54
2022-10-04T08:11:03.313Z,15.59
2022-10-04T08:13:39.922Z,15.70
2022-10-04T08:16:23.756Z,15.75
2022-10-04T08:19:10.224Z,15.82
2022-10-04T08:21:48.217Z,15.91
2022-10-04T08:24:25.739Z,15.95
2022-10-04T08:27:06.988Z,16.06
2022-10-04T08:30:01.219Z,16.14
2022-10-04T08:32:51.076Z,16.20
2022-10-04T08:35:34.289Z,16.31
2022-10-04T08:38:16.857Z,16.40
2022-10-04T08:41:26.707Z,16.50
2022-10-04T08:44:49.286Z,16.50
2022-10-04T08:47:34.530Z,16.71
2022-10-04T08:50:53.637Z,16.69
2022-10-04T08:54:07.639Z,16.70
2022-10-04T08:56:58.290Z,16.75
2022-10-04T09:00:02.131Z,16.80
2022-10-04T09:02:57.951Z,16.88
2022-10-04T09:05:45.550Z,16.90
2022-10-04T09:08:55.601Z,16.92
2022-10-04T09:11:41.581Z,16.91
2022-10-04T09:14:30.697Z,16.92
2022-10-04T09:17:22.235Z,17.14
2022-10-04T09:20:14.066Z,17.27
2022-10-04T09:22:50.124Z,17.46
2022-10-04T09:25:49.837Z,17.64
2022-10-04T09:28:53.826Z,17.77
2022-10-04T09:31:44.290Z,17.63
2022-10-04T09:34:36.399Z,17.54
2022-10-04T09:37:42.124Z,17.47
2022-10-04T09:40:49.383Z,17.27
2022-10-04T09:43:57.541Z,17.08
2022-10-04T09:47:10.575Z,17.20
2022-10-04T09:50:13.974Z,17.34
2022-10-04T09:52:54.032Z,17.40
2022-10-04T09:55:50.204Z,17.54
2022-10-04T09:58:46.358Z,17.49
2022-10-04T10:01:23.588Z,17.28
2022-10-04T10:04:22.981Z,17.50
2022-10-04T10:07:15.593Z,17.52
2022-10-04T10:10:09.952Z,17.37
2022-10-04T10:13:34.207Z,17.40
2022-10-04T10:16:11.450Z,17.27
2022-10-04T10:18:56.127Z,17.28
2022-10-04T10:21:41.417Z,17.29
2022-10-04T10:24:33.668Z,17.22
2022-10-04T10:27:20.042Z,17.23
2022-10-04T10:30:07.327Z,17.20
2022-10-04T10:32:48.986Z,17.31
2022-10-04T10:35:42.321Z,17.32
2022-10-04T10:38:40.207Z,17.44
2022-10-04T10:41:34.097Z,17.49
2022-10-04T10:44:23.490Z,17.46
2022-10-04T10:47:05.703Z,17.54
2022-10-04T10:49:44.385Z,17.62
2022-10-04T10:52:45.597Z,17.74
2022-10-04T10:55:44.806Z,17.71
2022-10-04T10:58:41.948Z,17.74
2022-10-04T11:01:42.958Z,17.58
2022-10-04T11:04:38.265Z,17.54
2022-10-04T11:07:41.497Z,17.43
2022-10-04T11:10:50.002Z,17.39
2022-10-04T11:13:41.915Z,17.31
2022-10-04T11:16:50.969Z,17.35
2022-10-04T11:19:46.214Z,17.35
2022-10-04T11:22:44.378Z,17.21
2022-10-04T11:25:39.860Z,17.18
2022-10-04T11:28:16.966Z,17.21
2022-10-04T11:31:23.973Z,17.19
2022-10-04T11:34:16.599Z,17.17
2022-10-04T11:37:01.884Z,17.16
2022-10-04T11:39:58.689Z,17.19
2022-10-04T11:42:45.000Z,17.17
2022-10-04T11:45:34.103Z,17.24
2022-10-04T11:48:16.537Z,17.31
2022-10-04T11:51:18.482Z,17.44
2022-10-04T11:54:07.604Z,17.64
2022-10-04T11:56:48.458Z,17.76
2022-10-04T11:59:30.963Z,17.75
2022-10-04T12:02:45.639Z,17.79
2022-10-04T12:05:50.901Z,17.90
2022-10-04T12:08:28.086Z,17.77
2022-10-04T12:11:52.575Z,17.73
2022-10-04T12:14:32.626Z,17.68
2022-10-04T12:17:40.163Z,17.67
2022-10-04T12:20:45.417Z,17.59
2022-10-04T12:23:39.644Z,17.53
2022-10-04T12:26:32.856Z,17.45
2022-10-04T12:29:38.001Z,17.40
2022-10-04T12:32:11.653Z,17.37
2022-10-04T12:34:56.964Z,17.36
2022-10-04T12:37:34.351Z,17.38
2022-10-04T12:40:22.534Z,17.34
2022-10-04T12:42:59.806Z,17.32
2022-10-04T12:45:40.412Z,17.35
2022-10-04T12:48:28.239Z,17.38
2022-10-04T12:51:05.751Z,17.36
2022-10-04T12:53:48.180Z,17.35
2022-10-04T12:56:32.103Z,17.37
2022-10-04T12:59:17.090Z,17.35
2022-10-04T13:01:57.032Z,17.42
2022-10-04T13:04:32.907Z,17.32
2022-10-04T13:07:23.460Z,17.33
2022-10-04T13:10:23.580Z,17.30
2022-10-04T13:13:31.122Z,17.25
2022-10-04T13:19:09.588Z,17.23
2022-10-04T13:22:37.625Z,17.18
2022-10-04T13:25:20.146Z,17.25
2022-10-04T13:27:50.199Z,17.19
2022-10-04T13:30:24.514Z,17.23
2022-10-04T13:33:00.041Z,17.24
2022-10-04T13:35:36.650Z,17.24
2022-10-04T13:38:36.945Z,17.14
2022-10-04T13:41:19.100Z,17.14
2022-10-04T13:44:02.672Z,17.09
2022-10-04T13:46:44.077Z,17.04
2022-10-04T13:49:27.782Z,17.10
2022-10-04T13:52:41.641Z,17.14
2022-10-04T13:55:41.650Z,17.28
2022-10-04T13:58:24.383Z,17.25
2022-10-04T14:01:22.118Z,17.34
2022-10-04T14:04:09.338Z,17.30
2022-10-04T14:06:54.250Z,17.42
2022-10-04T14:09:46.947Z,17.35
2022-10-04T14:13:06.154Z,17.36
2022-10-04T14:15:59.673Z,17.48
2022-10-04T14:18:55.695Z,17.44
2022-10-04T14:21:54.375Z,17.34
2022-10-04T14:25:11.482Z,17.35
2022-10-04T14:27:59.519Z,17.38
2022-10-04T14:30:37.875Z,17.36
2022-10-04T14:33:35.244Z,17.36
2022-10-04T14:36:44.586Z,17.38
2022-10-04T14:39:37.637Z,17.40
2022-10-04T14:42:19.577Z,17.41
2022-10-04T14:45:11.757Z,17.32
2022-10-04T14:48:07.288Z,17.27
2022-10-04T14:50:47.054Z,17.25
2022-10-04T14:53:29.500Z,17.27
2022-10-04T14:56:37.094Z,17.19
2022-10-04T14:59:21.794Z,17.17
2022-10-04T15:02:20.641Z,17.21
2022-10-04T15:05:13.856Z,17.24
2022-10-04T15:07:47.048Z,17.24
2022-10-04T15:10:21.371Z,17.22
2022-10-04T15:13:11.086Z,17.26
2022-10-04T15:16:00.505Z,17.32
2022-10-04T15:18:37.856Z,17.35
2022-10-04T15:21:21.614Z,17.29
2022-10-04T15:23:56.108Z,17.35
2022-10-04T15:26:54.250Z,17.32
2022-10-04T15:29:29.522Z,17.33
2022-10-04T15:32:07.969Z,17.30
2022-10-04T15:34:46.985Z,17.31
2022-10-04T15:37:25.601Z,17.34
2022-10-04T15:40:14.903Z,17.30
2022-10-04T15:43:04.172Z,17.31
